Latest Weather Observations for Wagga Wagga

IDN60801

Issued at 10:35 pm EST Wednesday 1 October 2014 (issued every 30 minutes, with the page automatically refreshed every 10 minutes)

About weather observations | Map of weather stations | Latest weather observations for NSW | Other Formats
Station Details ID: 072150 Name: WAGGA WAGGA AMO Lat: -35.16 Lon: 147.46 Height: 212.0 m
Data from the previous 72 hours. | See also: Recent months at Wagga Wagga
Date/Time
EST
Temp
°C
App
Temp
°C
Dew
Point
Rel
Hum
%
Delta-T
°C
Wind Press
QNH
hPa
Press
MSL
hPa
Rain
since 9 am
mm
Dir
 
Spd
km/h
Gust
km/h
Spd
kts
Gust
kts
01/10:30pm 7.5 4.7 1.9 67 2.3 WNW 6 7 3 4 1023.8 1023.7 0.0
01/10:00pm 6.9 5.2 1.8 70 2.1 SW 0 0 0 0 1023.8 1023.7 0.0
01/09:30pm 6.5 3.5 2.1 73 1.8 WSW 7 9 4 5 1023.7 1023.6 0.0
01/09:00pm 9.1 6.1 1.1 57 3.3 W 6 7 3 4 1023.6 1023.5 0.0
01/08:30pm 7.7 4.2 1.3 64 2.6 WSW 9 11 5 6 1023.2 1023.1 0.0
01/08:00pm 8.9 5.4 1.4 59 3.1 S 9 11 5 6 1023.3 1023.2 0.0
01/07:30pm 8.8 5.4 2.1 63 2.8 SSW 9 11 5 6 1023.2 1023.1 0.0
01/07:00pm 9.2 5.0 1.8 60 3.1 SW 13 15 7 8 1023.1 1023.0 0.0
01/06:30pm 9.3 4.4 1.9 60 3.1 SW 17 19 9 10 1022.8 1022.7 0.0
01/06:00pm 11.7 7.5 1.4 49 4.4 SW 13 19 7 10 1022.4 1022.2 0.0
01/05:30pm 13.4 8.8 1.4 44 5.2 SW 15 24 8 13 1022.1 1021.9 0.0
01/05:00pm 14.3 8.5 -0.2 37 6.1 SW 20 26 11 14 1021.7 1021.5 0.0
01/04:30pm 15.0 8.1 0.0 36 6.4 SW 26 33 14 18 1021.6 1021.4 0.0
01/04:00pm 15.2 7.8 -0.4 34 6.6 SW 28 39 15 21 1021.9 1021.7 0.0
01/03:30pm 15.5 8.6 0.1 35 6.6 SSW 26 35 14 19 1021.4 1021.2 0.0
01/03:00pm 15.6 7.7 -1.2 31 7.0 SW 30 39 16 21 1021.2 1021.0 0.0
01/02:30pm 15.7 8.5 0.5 35 6.6 SSW 28 37 15 20 1021.2 1021.0 0.0
01/02:00pm 15.7 7.7 0.1 34 6.7 SW 32 39 17 21 1021.3 1021.1 0.0
01/01:30pm 15.6 7.9 -0.4 33 6.8 SSW 30 39 16 21 1021.6 1021.4 0.0
01/01:00pm 15.2 7.9 -0.1 35 6.5 SW 28 41 15 22 1021.8 1021.6 0.0
01/12:30pm 15.0 8.8 0.0 36 6.4 SW 22 35 12 19 1022.1 1021.9 0.0
01/12:00pm 14.0 7.7 1.3 42 5.5 WSW 24 37 13 20 1022.4 1022.2 0.0
01/11:30am 13.6 7.7 1.4 43 5.3 SW 22 35 12 19 1022.5 1022.3 0.0
01/11:00am 13.4 6.5 0.4 41 5.5 SSW 26 33 14 18 1022.6 1022.4 0.0
01/10:30am 12.4 5.6 1.1 46 4.8 SW 26 37 14 20 1022.5 1022.3 0.0
01/10:00am 11.8 4.6 0.9 47 4.6 SW 28 39 15 21 1022.5 1022.3 0.0
01/09:30am 11.3 4.7 2.0 53 4.0 SW 26 33 14 18 1022.6 1022.7 0.0
01/09:00am 10.4 3.4 1.9 55 3.6 SW 28 35 15 19 1022.6 1022.7 0.0
01/08:30am 9.8 3.1 1.4 56 3.5 SW 26 35 14 19 1022.4 1022.5 0.0
01/08:00am 9.0 2.7 1.6 60 3.1 WSW 24 32 13 17 1022.0 1022.1 0.0
01/07:30am 7.8 3.6 1.5 64 2.6 WSW 13 17 7 9 1021.8 1021.9 0.0
01/07:00am 7.0 3.2 1.6 68 2.2 W 11 15 6 8 1021.4 1021.5 0.0
01/06:30am 5.8 1.2 1.3 73 1.8 W 15 20 8 11 1020.7 1020.8 0.0
01/06:00am 5.1 1.2 1.3 76 1.5 SW 11 17 6 9 1020.3 1020.4 0.0
01/05:30am 5.5 0.9 1.8 77 1.5 WSW 15 20 8 11 1019.8 1019.9 0.0
01/05:00am 6.0 1.1 1.8 74 1.7 WSW 17 24 9 13 1019.2 1019.3 0.0
01/04:30am 6.6 0.3 1.4 69 2.1 WSW 24 32 13 17 1018.6 1018.7 0.0
01/04:00am 5.7 0.8 2.3 79 1.4 W 17 22 9 12 1018.2 1018.3 0.0
01/03:30am 6.7 1.9 2.4 74 1.8 WSW 17 20 9 11 1017.9 1018.0 0.0
01/03:00am 7.4 2.6 2.4 70 2.1 WSW 17 24 9 13 1017.3 1017.4 0.0
01/02:30am 7.4 3.0 2.7 72 2.0 W 15 19 8 10 1016.9 1017.0 0.0
01/02:00am 7.7 3.4 3.0 72 2.0 WSW 15 17 8 9 1016.6 1016.7 0.0
01/01:30am 7.8 3.8 3.1 72 2.0 W 13 17 7 9 1016.2 1016.3 0.0
01/01:00am 8.5 4.5 2.9 68 2.4 W 13 17 7 9 1016.1 1016.2 0.0
01/12:30am 10.0 4.7 2.0 57 3.4 WSW 19 26 10 14 1015.9 1016.0 0.0
01/12:00am 11.2 6.4 2.5 55 3.8 WSW 17 22 9 12 1015.7 1015.8 0.0
 
Date/Time
EST
Temp
°C
App
Temp
°C
Dew
Point
Rel
Hum
%
Delta-T
°C
Wind Press
QNH
hPa
Press
MSL
hPa
Rain
since 9 am
mm
Dir
 
Spd
km/h
Gust
km/h
Spd
kts
Gust
kts
30/11:30pm 10.9 5.1 2.1 54 3.8 WSW 22 30 12 16 1015.2 1015.3 0.0
30/11:00pm 11.3 5.2 2.6 55 3.8 WSW 24 33 13 18 1014.9 1014.9 0.0
30/10:30pm 12.1 6.9 3.7 56 3.8 WSW 20 32 11 17 1014.3 1014.3 0.0
30/10:08pm 13.2 5.0 2.9 49 4.6 SW 35 54 19 29 1013.9 1014.0 0.0
30/10:00pm 13.5 4.5 2.5 47 4.9 SW 39 54 21 29 1013.8 1013.9 0.0
30/09:55pm 13.7 5.8 4.2 52 4.4 SW 35 54 19 29 1013.7 1013.8 0.0
30/09:30pm 14.7 5.5 5.5 54 4.4 WSW 43 57 23 31 1012.8 1012.9 0.0
30/09:00pm 15.5 5.9 6.1 53 4.6 SW 46 65 25 35 1012.0 1012.1 0.0
30/08:34pm 16.9 6.9 6.2 49 5.3 WSW 48 67 26 36 1011.1 1011.2 0.0
30/08:30pm 17.1 6.7 5.9 47 5.5 SW 50 67 27 36 1010.9 1010.9 0.0
30/08:21pm 17.9 6.7 5.8 45 6.0 SW 54 74 29 40 1010.7 1010.7 0.0
30/08:18pm 19.0 6.2 4.6 38 7.0 SW 61 74 33 40 1010.4 1010.4 0.0
30/08:16pm 21.1 8.5 1.2 26 9.2 W 57 69 31 37 1010.2 1010.2 0.0
30/08:15pm 21.4 13.8 0.3 24 9.6 WNW 30 69 16 37 1009.9 1009.9 0.0
30/08:00pm 21.3 15.7 0.9 25 9.4 WNW 20 30 11 16 1009.1 1009.2 0.0
30/07:30pm 21.7 14.7 -0.2 23 9.9 WNW 26 35 14 19 1009.0 1009.1 0.0
30/07:00pm 21.9 15.7 -0.5 22 10.1 WNW 22 33 12 18 1008.9 1009.0 0.0
30/06:30pm 21.3 15.8 0.5 25 9.5 W 19 28 10 15 1009.0 1009.1 0.0
30/06:00pm 21.8 15.8 0.8 25 9.7 W 22 32 12 17 1008.8 1008.9 0.0
30/05:30pm 23.2 16.4 0.6 22 10.5 W 26 35 14 19 1008.7 1008.8 0.0
30/05:00pm 24.4 16.2 -1.1 18 11.6 W 32 50 17 27 1008.7 1008.8 0.0
30/04:53pm 24.4 17.1 -0.3 19 11.4 W 28 50 15 27 1008.7 1008.8 0.0
30/04:30pm 24.8 16.6 0.6 20 11.4 W 33 44 18 24 1008.9 1009.0 0.0
30/04:00pm 25.3 16.4 -1.6 17 12.2 WNW 35 48 19 26 1008.8 1008.9 0.0
30/03:42pm 25.4 17.0 -1.4 17 12.2 WNW 33 52 18 28 1008.9 1009.0 0.0
30/03:30pm 25.6 15.6 -1.8 16 12.4 WNW 41 56 22 30 1009.1 1009.2 0.0
30/03:22pm 25.6 16.9 -3.1 15 12.7 WNW 33 52 18 28 1009.1 1009.2 0.0
30/03:00pm 25.7 17.7 -2.0 16 12.5 WNW 30 39 16 21 1009.1 1009.2 0.0
30/02:30pm 25.3 16.9 -0.8 18 12.0 WNW 33 43 18 23 1009.7 1009.7 0.0
30/02:00pm 25.4 16.9 3.2 23 11.0 WNW 37 48 20 26 1010.1 1010.1 0.0
30/01:30pm 24.9 16.4 2.9 24 10.8 WNW 37 56 20 30 1011.2 1011.3 0.0
30/01:10pm 24.8 17.4 4.0 26 10.4 NW 32 50 17 27 1011.2 1011.3 0.0
30/01:00pm 24.5 16.4 3.1 25 10.5 WNW 35 44 19 24 1011.4 1011.5 0.0
30/12:30pm 24.6 18.1 4.6 27 10.1 WNW 28 39 15 21 1011.8 1011.9 0.0
30/12:00pm 24.1 17.4 5.8 30 9.4 WNW 30 39 16 21 1012.4 1012.5 0.0
30/11:30am 23.5 19.0 7.1 35 8.6 WNW 20 32 11 17 1012.7 1012.8 0.0
30/11:00am 22.0 18.4 8.5 42 7.2 WNW 17 28 9 15 1013.3 1013.4 0.0
30/10:30am 20.7 17.8 9.6 49 6.0 NW 15 19 8 10 1013.4 1013.5 0.0
30/10:00am 18.9 17.3 10.2 57 4.7 N 9 11 5 6 1013.7 1013.8 0.0
30/09:30am 17.7 16.3 8.9 56 4.6 ENE 6 11 3 6 1013.9 1014.0 0.0
30/09:00am 16.7 14.7 8.6 59 4.2 ENE 9 11 5 6 1014.2 1014.2 0.0
30/08:30am 14.8 12.7 8.3 65 3.3 ENE 9 13 5 7 1014.3 1014.3 0.0
30/08:00am 13.3 10.7 7.7 69 2.8 E 11 11 6 6 1014.5 1014.5 0.0
30/07:30am 10.3 9.9 8.3 87 1.0 CALM 0 0 0 0 1014.3 1014.3 0.0
30/07:00am 9.7 7.3 7.0 83 1.3 ENE 9 11 5 6 1013.7 1013.8 0.0
30/06:30am 7.4 5.1 5.9 90 0.7 E 7 9 4 5 1013.8 1013.9 0.0
30/06:00am 8.2 4.9 6.3 88 0.9 E 13 13 7 7 1013.5 1013.6 0.0
30/05:30am 6.5 5.1 5.4 93 0.5 ESE 2 7 1 4 1013.3 1013.4 0.0
30/05:00am 6.8 4.1 5.7 93 0.5 SSE 9 11 5 6 1012.9 1013.0 0.0
30/04:30am 8.7 5.4 6.6 87 1.0 ESE 13 13 7 7 1012.7 1012.8 0.0
30/04:00am 9.3 6.1 6.8 84 1.2 E 13 13 7 7 1012.9 1013.0 0.0
30/03:30am 8.5 5.5 6.1 85 1.1 ESE 11 13 6 7 1012.8 1012.9 0.0
30/03:00am 9.6 7.2 6.9 83 1.3 E 9 11 5 6 1013.1 1013.2 0.0
30/02:30am 9.2 6.0 6.9 85 1.1 E 13 13 7 7 1013.3 1013.4 0.0
30/02:00am 8.7 6.3 6.8 88 0.9 ENE 9 9 5 5 1013.4 1013.5 0.0
30/01:30am 9.7 6.8 6.7 81 1.4 ESE 11 13 6 7 1013.6 1013.7 0.0
30/01:00am 8.6 6.2 7.1 90 0.7 E 9 9 5 5 1013.9 1014.0 0.0
30/12:30am 9.6 7.9 7.5 87 1.0 E 6 7 3 4 1013.9 1014.0 0.0
30/12:00am 10.3 8.7 7.8 84 1.2 E 6 7 3 4 1014.3 1014.3 0.0
 
Date/Time
EST
Temp
°C
App
Temp
°C
Dew
Point
Rel
Hum
%
Delta-T
°C
Wind Press
QNH
hPa
Press
MSL
hPa
Rain
since 9 am
mm
Dir
 
Spd
km/h
Gust
km/h
Spd
kts
Gust
kts
29/11:30pm 10.3 8.4 7.4 82 1.4 S 7 9 4 5 1014.3 1014.3 0.0
29/11:00pm 11.5 9.3 7.8 78 1.8 ESE 9 11 5 6 1014.4 1014.4 0.0
29/10:30pm 12.0 10.3 8.2 77 1.9 E 7 9 4 5 1014.4 1014.4 0.0
29/10:00pm 11.5 10.1 8.7 83 1.4 NE 6 7 3 4 1014.5 1014.5 0.0
29/09:30pm 12.5 11.1 8.7 77 1.9 NE 6 7 3 4 1014.7 1014.7 0.0
29/09:00pm 12.9 11.4 9.0 77 2.0 ENE 7 7 4 4 1014.6 1014.6 0.0
29/08:30pm 13.8 12.8 8.7 71 2.6 SE 4 9 2 5 1014.7 1014.7 0.0
29/08:00pm 14.6 11.0 8.5 67 3.1 SE 17 19 9 10 1014.6 1014.6 0.0
29/07:30pm 16.6 13.1 8.7 59 4.1 SE 17 19 9 10 1014.4 1014.4 0.0
29/07:00pm 16.3 13.5 8.5 60 4.0 SSE 13 15 7 8 1014.2 1014.2 0.0
29/06:30pm 17.3 14.3 7.9 54 4.8 SSE 13 15 7 8 1013.9 1014.0 0.0
29/06:00pm 18.6 16.8 10.7 60 4.3 S 11 11 6 6 1013.8 1013.9 0.0
29/05:30pm 20.4 18.9 10.6 53 5.4 S 9 11 5 6 1013.8 1013.9 0.0
29/05:00pm 22.1 20.2 9.1 43 7.0 SW 9 13 5 7 1013.8 1013.9 0.0
29/04:30pm 22.8 19.7 5.7 33 8.7 SW 11 15 6 8 1013.6 1013.7 0.0
29/04:00pm 23.4 19.7 4.3 29 9.5 SW 13 19 7 10 1013.6 1013.7 0.0
29/03:30pm 23.5 19.7 5.7 31 9.1 WSW 15 24 8 13 1013.5 1013.6 0.0
29/03:00pm 23.6 19.9 6.2 32 9.0 WSW 15 24 8 13 1013.5 1013.6 0.0
29/02:30pm 23.5 19.5 4.8 29 9.4 W 15 20 8 11 1013.7 1013.8 0.0
29/02:00pm 23.2 19.5 6.1 33 8.8 W 15 26 8 14 1013.9 1014.0 0.0
29/01:30pm 22.5 18.7 5.8 34 8.5 W 15 22 8 12 1014.2 1014.2 0.0
29/01:00pm 22.4 18.7 7.8 39 7.7 WNW 17 28 9 15 1014.4 1014.4 0.0
29/12:30pm 21.5 18.4 7.3 40 7.4 WNW 13 20 7 11 1014.5 1014.5 0.0
29/12:00pm 21.0 17.5 7.0 40 7.2 WNW 15 22 8 12 1014.9 1014.9 0.0
29/11:30am 20.3 17.7 7.6 44 6.6 WNW 11 19 6 10 1015.2 1015.3 0.0
29/11:00am 19.9 17.3 7.8 45 6.3 W 11 17 6 9 1015.4 1015.5 0.0
29/10:30am 19.3 16.7 7.9 47 5.9 NNW 11 15 6 8 1015.6 1015.7 0.0
29/10:00am 18.6 16.2 7.0 46 5.9 NNW 9 13 5 7 1015.6 1015.7 0.0
29/09:30am 17.9 15.8 8.2 53 5.0 NNW 9 15 5 8 1015.8 1015.9 0.0
29/09:00am 17.1 14.9 7.7 54 4.8 NNW 9 15 5 8 1015.9 1016.0 0.0
29/08:30am 16.0 13.0 7.5 57 4.3 NW 13 17 7 9 1015.8 1015.9 0.0
29/08:00am 14.4 12.1 7.4 63 3.5 WNW 9 11 5 6 1015.6 1015.7 0.0
29/07:30am 14.0 11.4 6.1 59 3.8 N 9 15 5 8 1015.2 1015.3 0.0
29/07:00am 13.1 10.8 5.7 61 3.5 N 7 9 4 5 1015.1 1015.2 0.0
29/06:30am 11.4 8.8 5.9 69 2.6 NE 9 13 5 7 1014.7 1014.7 0.0
29/06:00am 10.1 7.3 5.3 72 2.2 ENE 9 9 5 5 1014.8 1014.8 0.0
29/05:30am 11.5 9.2 5.5 66 2.8 ENE 7 9 4 5 1014.5 1014.5 0.0
29/05:00am 11.7 8.9 5.0 63 3.1 NNE 9 11 5 6 1013.8 1013.9 0.0
29/04:30am 12.1 9.3 5.3 63 3.2 NNW 9 11 5 6 1013.5 1013.6 0.0
29/04:00am 8.6 6.5 5.8 82 1.3 SW 6 9 3 5 1013.0 1013.1 0.0
29/03:30am 11.3 9.1 6.2 71 2.4 SW 7 11 4 6 1012.3 1012.4 0.0
29/03:00am 11.9 9.8 6.5 69 2.6 WNW 7 11 4 6 1012.3 1012.4 0.0
29/02:30am 13.2 11.1 5.9 61 3.5 WNW 6 11 3 6 1012.4 1012.5 0.0
29/02:00am 13.2 11.0 5.4 59 3.7 NW 6 9 3 5 1012.9 1013.0 0.0
29/01:30am 13.8 11.5 5.9 59 3.8 SW 7 9 4 5 1013.2 1013.3 0.0
29/01:00am 15.4 11.9 5.4 51 4.8 NNW 13 19 7 10 1013.4 1013.5 0.0
29/12:30am 14.4 10.6 5.6 55 4.2 NNW 15 22 8 12 1013.5 1013.6 0.0
29/12:00am 13.6 11.0 6.1 60 3.6 NW 9 13 5 7 1013.8 1013.9 0.0
 
Date/Time
EST
Temp
°C
App
Temp
°C
Dew
Point
Rel
Hum
%
Delta-T
°C
Wind Press
QNH
hPa
Press
MSL
hPa
Rain
since 9 am
mm
Dir
 
Spd
km/h
Gust
km/h
Spd
kts
Gust
kts
28/11:30pm 14.9 11.9 5.8 54 4.4 N 11 17 6 9 1014.0 1014.1 0.0
28/11:00pm 14.6 12.0 5.9 56 4.2 NNW 9 13 5 7 1014.4 1014.4 0.0

Other Formats:

Comma delimited format used in spreadsheet applications
http://www.bom.gov.au/fwo/IDN60801/IDN60801.94910.axf

JavaScript Object Notation format (JSON) in row-major order
http://www.bom.gov.au/fwo/IDN60801/IDN60801.94910.json